sensor_id;sensor_type;location;lat;lon;timestamp;pressure;altitude;pressure_sealevel;temperature;humidity
57610;BME280;43435;46.186;9.024;2023-10-31T09:48:17;97686.75;;;12.89;81.36
57610;BME280;43435;46.186;9.024;2023-10-31T09:50:43;97685.03;;;12.82;81.20
57610;BME280;43435;46.186;9.024;2023-10-31T09:53:09;97694.53;;;12.90;81.04
57610;BME280;43435;46.186;9.024;2023-10-31T09:55:34;97695.44;;;12.96;80.28
57610;BME280;43435;46.186;9.024;2023-10-31T09:58:00;97702.38;;;13.09;80.09
57610;BME280;43435;46.186;9.024;2023-10-31T10:00:25;97711.13;;;13.04;77.56
57610;BME280;43435;46.186;9.024;2023-10-31T10:02:51;97710.28;;;13.15;77.33
57610;BME280;43435;46.186;9.024;2023-10-31T10:05:16;97710.34;;;13.20;78.16
57610;BME280;43435;46.186;9.024;2023-10-31T10:07:42;97704.78;;;13.22;77.70
57610;BME280;43435;46.186;9.024;2023-10-31T10:10:12;97707.31;;;13.28;77.08
57610;BME280;43435;46.186;9.024;2023-10-31T10:12:37;97709.28;;;13.21;78.03
57610;BME280;43435;46.186;9.024;2023-10-31T10:15:03;97704.91;;;13.27;78.20
57610;BME280;43435;46.186;9.024;2023-10-31T10:17:28;97707.09;;;13.30;78.54
57610;BME280;43435;46.186;9.024;2023-10-31T10:22:31;97706.97;;;13.37;77.09
57610;BME280;43435;46.186;9.024;2023-10-31T10:24:57;97705.31;;;13.36;77.81
57610;BME280;43435;46.186;9.024;2023-10-31T10:27:22;97708.78;;;13.36;77.20
57610;BME280;43435;46.186;9.024;2023-10-31T10:29:47;97715.31;;;13.40;76.73
57610;BME280;43435;46.186;9.024;2023-10-31T10:32:12;97707.09;;;13.47;77.52
57610;BME280;43435;46.186;9.024;2023-10-31T10:34:38;97712.41;;;13.59;76.92
57610;BME280;43435;46.186;9.024;2023-10-31T10:37:04;97719.25;;;13.66;76.59
57610;BME280;43435;46.186;9.024;2023-10-31T10:39:29;97732.53;;;13.61;77.29
57610;BME280;43435;46.186;9.024;2023-10-31T10:41:57;97727.03;;;13.68;77.83
57610;BME280;43435;46.186;9.024;2023-10-31T10:44:28;97725.19;;;13.85;77.80
57610;BME280;43435;46.186;9.024;2023-10-31T10:46:55;97721.34;;;13.98;78.02
57610;BME280;43435;46.186;9.024;2023-10-31T12:33:53;97664.03;;;17.10;60.82
57610;BME280;43435;46.186;9.024;2023-10-31T12:36:18;97664.84;;;17.11;60.98
57610;BME280;43435;46.186;9.024;2023-10-31T12:38:46;97672.63;;;17.02;61.11
57610;BME280;43435;46.186;9.024;2023-10-31T12:41:11;97675.84;;;16.99;60.89
57610;BME280;43435;46.186;9.024;2023-10-31T12:43:37;97674.50;;;16.97;60.78
57610;BME280;43435;46.186;9.024;2023-10-31T12:46:23;97687.44;;;17.00;61.51
57610;BME280;43435;46.186;9.024;2023-10-31T12:48:47;97691.50;;;17.02;61.87
57610;BME280;43435;46.186;9.024;2023-10-31T12:51:12;97704.44;;;17.05;61.35
57610;BME280;43435;46.186;9.024;2023-10-31T12:53:38;97710.06;;;17.04;61.40
57610;BME280;43435;46.186;9.024;2023-10-31T12:56:03;97710.63;;;17.06;61.30
57610;BME280;43435;46.186;9.024;2023-10-31T12:58:28;97710.09;;;17.09;60.43
57610;BME280;43435;46.186;9.024;2023-10-31T13:00:54;97715.50;;;17.14;60.62
57610;BME280;43435;46.186;9.024;2023-10-31T13:03:20;97721.44;;;17.16;59.66
57610;BME280;43435;46.186;9.024;2023-10-31T13:05:46;97712.00;;;17.19;60.06
57610;BME280;43435;46.186;9.024;2023-10-31T13:08:14;97723.06;;;17.22;59.53
57610;BME280;43435;46.186;9.024;2023-10-31T13:10:40;97726.31;;;17.29;60.01
57610;BME280;43435;46.186;9.024;2023-10-31T13:13:05;97726.34;;;17.34;59.87
57610;BME280;43435;46.186;9.024;2023-10-31T13:15:31;97731.19;;;17.43;60.26
57610;BME280;43435;46.186;9.024;2023-10-31T13:17:56;97738.19;;;17.49;60.72
57610;BME280;43435;46.186;9.024;2023-10-31T13:20:22;97736.59;;;17.53;60.83
57610;BME280;43435;46.186;9.024;2023-10-31T13:22:47;97744.97;;;17.61;60.85
57610;BME280;43435;46.186;9.024;2023-10-31T13:25:13;97741.47;;;17.66;60.97
57610;BME280;43435;46.186;9.024;2023-10-31T13:27:39;97749.28;;;17.73;61.85
57610;BME280;43435;46.186;9.024;2023-10-31T13:30:08;97747.69;;;17.82;61.82
57610;BME280;43435;46.186;9.024;2023-10-31T13:32:35;97752.84;;;17.89;61.65
57610;BME280;43435;46.186;9.024;2023-10-31T13:35:00;97752.06;;;17.93;61.53
57610;BME280;43435;46.186;9.024;2023-10-31T13:37:26;97760.66;;;18.00;62.23
57610;BME280;43435;46.186;9.024;2023-10-31T13:39:51;97770.91;;;18.03;60.66
57610;BME280;43435;46.186;9.024;2023-10-31T13:42:16;97778.22;;;18.13;61.49
57610;BME280;43435;46.186;9.024;2023-10-31T13:44:41;97782.53;;;18.19;61.55
57610;BME280;43435;46.186;9.024;2023-10-31T13:47:07;97782.81;;;18.23;61.56
57610;BME280;43435;46.186;9.024;2023-10-31T13:49:32;97786.28;;;18.28;61.42
57610;BME280;43435;46.186;9.024;2023-10-31T13:51:57;97800.59;;;18.29;61.30
57610;BME280;43435;46.186;9.024;2023-10-31T13:54:22;97802.22;;;18.25;60.76
57610;BME280;43435;46.186;9.024;2023-10-31T13:56:47;97801.94;;;18.16;61.27
57610;BME280;43435;46.186;9.024;2023-10-31T13:59:13;97810.03;;;18.11;60.63
57610;BME280;43435;46.186;9.024;2023-10-31T14:01:38;97828.63;;;18.07;59.88
57610;BME280;43435;46.186;9.024;2023-10-31T20:47:00;98409.91;;;13.76;68.05
57610;BME280;43435;46.186;9.024;2023-10-31T20:49:25;98408.16;;;13.70;68.51
57610;BME280;43435;46.186;9.024;2023-10-31T20:51:50;98422.00;;;13.67;67.36
57610;BME280;43435;46.186;9.024;2023-10-31T20:54:16;98419.16;;;13.62;66.90
57610;BME280;43435;46.186;9.024;2023-10-31T20:56:41;98419.63;;;13.59;67.34
57610;BME280;43435;46.186;9.024;2023-10-31T20:59:06;98427.19;;;13.62;67.69
57610;BME280;43435;46.186;9.024;2023-10-31T21:01:31;98430.63;;;13.50;67.46
57610;BME280;43435;46.186;9.024;2023-10-31T21:03:57;98436.81;;;13.51;67.77
57610;BME280;43435;46.186;9.024;2023-10-31T21:06:22;98441.50;;;13.56;67.72
57610;BME280;43435;46.186;9.024;2023-10-31T21:08:49;98440.34;;;13.51;67.85
57610;BME280;43435;46.186;9.024;2023-10-31T21:11:15;98445.38;;;13.41;68.08
57610;BME280;43435;46.186;9.024;2023-10-31T21:13:40;98451.94;;;13.45;67.81
57610;BME280;43435;46.186;9.024;2023-10-31T21:16:05;98448.13;;;13.35;67.71
57610;BME280;43435;46.186;9.024;2023-10-31T21:18:30;98454.91;;;13.37;68.32
57610;BME280;43435;46.186;9.024;2023-10-31T21:20:56;98459.34;;;13.43;68.07
57610;BME280;43435;46.186;9.024;2023-10-31T21:23:21;98459.06;;;13.33;68.11
57610;BME280;43435;46.186;9.024;2023-10-31T21:25:46;98455.34;;;13.34;68.38
57610;BME280;43435;46.186;9.024;2023-10-31T21:28:12;98466.19;;;13.39;68.05
57610;BME280;43435;46.186;9.024;2023-10-31T21:30:37;98470.06;;;13.43;68.00
57610;BME280;43435;46.186;9.024;2023-10-31T21:33:02;98476.34;;;13.37;68.15
57610;BME280;43435;46.186;9.024;2023-10-31T21:35:27;98472.84;;;13.37;68.35
57610;BME280;43435;46.186;9.024;2023-10-31T21:37:53;98470.22;;;13.30;68.10
57610;BME280;43435;46.186;9.024;2023-10-31T21:40:18;98474.31;;;13.33;68.40
57610;BME280;43435;46.186;9.024;2023-10-31T21:42:43;98471.47;;;13.27;68.78
57610;BME280;43435;46.186;9.024;2023-10-31T21:45:08;98467.75;;;13.28;68.77
57610;BME280;43435;46.186;9.024;2023-10-31T21:47:33;98477.81;;;13.33;67.82
57610;BME280;43435;46.186;9.024;2023-10-31T21:49:59;98487.44;;;13.41;67.86
57610;BME280;43435;46.186;9.024;2023-10-31T21:52:25;98482.88;;;13.41;66.42
57610;BME280;43435;46.186;9.024;2023-10-31T21:54:50;98490.09;;;13.41;66.43
57610;BME280;43435;46.186;9.024;2023-10-31T21:57:15;98491.50;;;13.43;66.29
57610;BME280;43435;46.186;9.024;2023-10-31T21:59:40;98491.59;;;13.37;66.27
57610;BME280;43435;46.186;9.024;2023-10-31T22:02:06;98496.34;;;13.35;65.79
57610;BME280;43435;46.186;9.024;2023-10-31T22:04:31;98494.75;;;13.27;65.75
57610;BME280;43435;46.186;9.024;2023-10-31T22:06:56;98497.25;;;13.22;65.18
